sensor_id;sensor_type;location;lat;lon;timestamp;P1;durP1;ratioP1;P2;durP2;ratioP2
63316;SDS011;49822;41.468;13.560;2023-01-16T00:01:06;72.30;;;32.80;;
63316;SDS011;49822;41.468;13.560;2023-01-16T00:03:33;69.20;;;34.75;;
63316;SDS011;49822;41.468;13.560;2023-01-16T00:06:02;74.60;;;33.17;;
63316;SDS011;49822;41.468;13.560;2023-01-16T00:08:29;76.45;;;34.20;;
63316;SDS011;49822;41.468;13.560;2023-01-16T00:10:57;73.55;;;37.97;;
63316;SDS011;49822;41.468;13.560;2023-01-16T00:13:25;83.57;;;35.30;;
63316;SDS011;49822;41.468;13.560;2023-01-16T00:15:54;64.38;;;32.60;;
63316;SDS011;49822;41.468;13.560;2023-01-16T00:18:27;69.35;;;33.15;;
63316;SDS011;49822;41.468;13.560;2023-01-16T00:20:55;72.75;;;33.25;;
63316;SDS011;49822;41.468;13.560;2023-01-16T00:23:23;101.40;;;37.85;;
63316;SDS011;49822;41.468;13.560;2023-01-16T00:25:51;109.28;;;43.47;;
63316;SDS011;49822;41.468;13.560;2023-01-16T00:28:18;94.70;;;41.58;;
63316;SDS011;49822;41.468;13.560;2023-01-16T00:30:46;76.68;;;34.35;;
63316;SDS011;49822;41.468;13.560;2023-01-16T00:33:18;61.65;;;30.98;;
63316;SDS011;49822;41.468;13.560;2023-01-16T00:35:45;109.85;;;49.42;;
63316;SDS011;49822;41.468;13.560;2023-01-16T00:38:14;117.72;;;53.70;;
63316;SDS011;49822;41.468;13.560;2023-01-16T00:40:42;99.60;;;48.33;;
63316;SDS011;49822;41.468;13.560;2023-01-16T00:43:10;85.25;;;41.30;;
63316;SDS011;49822;41.468;13.560;2023-01-16T00:45:38;92.90;;;41.70;;
63316;SDS011;49822;41.468;13.560;2023-01-16T00:48:08;104.88;;;46.85;;
63316;SDS011;49822;41.468;13.560;2023-01-16T00:50:36;85.72;;;39.55;;
63316;SDS011;49822;41.468;13.560;2023-01-16T00:53:03;134.13;;;43.10;;
63316;SDS011;49822;41.468;13.560;2023-01-16T00:55:34;88.28;;;39.17;;
63316;SDS011;49822;41.468;13.560;2023-01-16T00:58:03;93.75;;;36.28;;
63316;SDS011;49822;41.468;13.560;2023-01-16T01:00:32;76.55;;;32.63;;
63316;SDS011;49822;41.468;13.560;2023-01-16T01:03:07;100.57;;;40.50;;
63316;SDS011;49822;41.468;13.560;2023-01-16T01:05:35;53.42;;;29.77;;
63316;SDS011;49822;41.468;13.560;2023-01-16T01:08:04;59.90;;;26.17;;
63316;SDS011;49822;41.468;13.560;2023-01-16T01:10:32;57.20;;;26.80;;
63316;SDS011;49822;41.468;13.560;2023-01-16T01:13:02;50.85;;;25.75;;
63316;SDS011;49822;41.468;13.560;2023-01-16T01:15:32;58.20;;;29.45;;
63316;SDS011;49822;41.468;13.560;2023-01-16T01:18:06;58.20;;;27.98;;
63316;SDS011;49822;41.468;13.560;2023-01-16T01:20:33;48.88;;;23.80;;
63316;SDS011;49822;41.468;13.560;2023-01-16T01:23:02;58.92;;;30.65;;
63316;SDS011;49822;41.468;13.560;2023-01-16T01:25:29;53.40;;;24.08;;
63316;SDS011;49822;41.468;13.560;2023-01-16T01:27:57;45.90;;;22.88;;
63316;SDS011;49822;41.468;13.560;2023-01-16T01:30:24;35.95;;;16.88;;
63316;SDS011;49822;41.468;13.560;2023-01-16T01:32:52;41.35;;;20.20;;
63316;SDS011;49822;41.468;13.560;2023-01-16T01:35:19;46.22;;;24.40;;
63316;SDS011;49822;41.468;13.560;2023-01-16T01:37:47;58.72;;;27.38;;
63316;SDS011;49822;41.468;13.560;2023-01-16T01:40:15;57.22;;;29.92;;
63316;SDS011;49822;41.468;13.560;2023-01-16T01:42:43;65.88;;;31.23;;
63316;SDS011;49822;41.468;13.560;2023-01-16T01:45:12;68.07;;;32.35;;
63316;SDS011;49822;41.468;13.560;2023-01-16T01:47:49;76.40;;;39.22;;
63316;SDS011;49822;41.468;13.560;2023-01-16T01:50:23;70.30;;;33.85;;
63316;SDS011;49822;41.468;13.560;2023-01-16T01:52:54;62.70;;;30.02;;
63316;SDS011;49822;41.468;13.560;2023-01-16T01:55:25;67.22;;;29.23;;
63316;SDS011;49822;41.468;13.560;2023-01-16T01:57:54;56.10;;;28.17;;
63316;SDS011;49822;41.468;13.560;2023-01-16T02:00:27;61.85;;;31.20;;
63316;SDS011;49822;41.468;13.560;2023-01-16T02:03:13;55.92;;;28.77;;
63316;SDS011;49822;41.468;13.560;2023-01-16T02:05:46;53.17;;;26.90;;
63316;SDS011;49822;41.468;13.560;2023-01-16T02:08:17;65.75;;;32.08;;
63316;SDS011;49822;41.468;13.560;2023-01-16T02:10:50;68.30;;;32.63;;
63316;SDS011;49822;41.468;13.560;2023-01-16T02:13:25;61.03;;;31.23;;
63316;SDS011;49822;41.468;13.560;2023-01-16T02:15:54;56.15;;;30.27;;
63316;SDS011;49822;41.468;13.560;2023-01-16T02:18:41;49.15;;;25.05;;
63316;SDS011;49822;41.468;13.560;2023-01-16T02:27:20;68.88;;;32.58;;
63316;SDS011;49822;41.468;13.560;2023-01-16T02:30:07;57.00;;;28.90;;
63316;SDS011;49822;41.468;13.560;2023-01-16T02:35:49;53.03;;;28.48;;
63316;SDS011;49822;41.468;13.560;2023-01-16T02:38:34;61.60;;;27.58;;
63316;SDS011;49822;41.468;13.560;2023-01-16T02:44:02;51.63;;;25.35;;
63316;SDS011;49822;41.468;13.560;2023-01-16T02:50:00;58.67;;;26.92;;
63316;SDS011;49822;41.468;13.560;2023-01-16T02:52:40;56.00;;;26.63;;
63316;SDS011;49822;41.468;13.560;2023-01-16T02:55:33;55.67;;;28.52;;
63316;SDS011;49822;41.468;13.560;2023-01-16T02:58:02;55.30;;;25.90;;
63316;SDS011;49822;41.468;13.560;2023-01-16T03:00:33;65.47;;;28.70;;
63316;SDS011;49822;41.468;13.560;2023-01-16T03:03:16;86.63;;;37.10;;
63316;SDS011;49822;41.468;13.560;2023-01-16T03:08:59;52.53;;;26.35;;
63316;SDS011;49822;41.468;13.560;2023-01-16T03:11:31;55.15;;;27.33;;
63316;SDS011;49822;41.468;13.560;2023-01-16T03:14:42;49.78;;;24.40;;
63316;SDS011;49822;41.468;13.560;2023-01-16T03:17:50;44.67;;;20.15;;
63316;SDS011;49822;41.468;13.560;2023-01-16T03:23:08;48.85;;;26.33;;
63316;SDS011;49822;41.468;13.560;2023-01-16T03:25:43;69.85;;;29.35;;
63316;SDS011;49822;41.468;13.560;2023-01-16T03:28:32;125.93;;;59.30;;
63316;SDS011;49822;41.468;13.560;2023-01-16T03:31:24;114.88;;;49.85;;
63316;SDS011;49822;41.468;13.560;2023-01-16T03:37:06;67.75;;;35.17;;
63316;SDS011;49822;41.468;13.560;2023-01-16T03:39:43;75.30;;;36.78;;
63316;SDS011;49822;41.468;13.560;2023-01-16T03:45:18;60.67;;;32.72;;
63316;SDS011;49822;41.468;13.560;2023-01-16T03:47:49;108.50;;;44.88;;
63316;SDS011;49822;41.468;13.560;2023-01-16T03:50:23;100.10;;;45.65;;
63316;SDS011;49822;41.468;13.560;2023-01-16T03:52:54;49.17;;;25.20;;
63316;SDS011;49822;41.468;13.560;2023-01-16T03:55:31;36.58;;;17.30;;
63316;SDS011;49822;41.468;13.560;2023-01-16T03:58:24;51.65;;;25.08;;
63316;SDS011;49822;41.468;13.560;2023-01-16T04:03:28;70.40;;;35.85;;
63316;SDS011;49822;41.468;13.560;2023-01-16T04:06:16;66.25;;;33.50;;
63316;SDS011;49822;41.468;13.560;2023-01-16T04:08:45;247.23;;;68.53;;
63316;SDS011;49822;41.468;13.560;2023-01-16T04:11:13;103.70;;;43.28;;
63316;SDS011;49822;41.468;13.560;2023-01-16T04:13:44;102.78;;;39.95;;
63316;SDS011;49822;41.468;13.560;2023-01-16T04:16:15;66.90;;;30.33;;
63316;SDS011;49822;41.468;13.560;2023-01-16T04:18:45;92.72;;;46.10;;
63316;SDS011;49822;41.468;13.560;2023-01-16T04:21:15;75.20;;;34.85;;
63316;SDS011;49822;41.468;13.560;2023-01-16T04:23:43;58.22;;;29.17;;
63316;SDS011;49822;41.468;13.560;2023-01-16T04:26:11;119.60;;;38.05;;
63316;SDS011;49822;41.468;13.560;2023-01-16T04:28:39;178.13;;;53.83;;
63316;SDS011;49822;41.468;13.560;2023-01-16T04:31:07;159.18;;;49.50;;
63316;SDS011;49822;41.468;13.560;2023-01-16T04:33:37;89.88;;;37.28;;
63316;SDS011;49822;41.468;13.560;2023-01-16T04:36:06;194.88;;;54.60;;
63316;SDS011;49822;41.468;13.560;2023-01-16T04:38:34;120.78;;;46.40;;
63316;SDS011;49822;41.468;13.560;2023-01-16T04:41:02;75.40;;;41.15;;
63316;SDS011;49822;41.468;13.560;2023-01-16T04:43:29;64.68;;;32.30;;
63316;SDS011;49822;41.468;13.560;2023-01-16T04:45:57;71.65;;;37.00;;
63316;SDS011;49822;41.468;13.560;2023-01-16T04:48:25;71.07;;;31.58;;
63316;SDS011;49822;41.468;13.560;2023-01-16T04:50:53;54.60;;;25.88;;
63316;SDS011;49822;41.468;13.560;2023-01-16T04:53:21;69.00;;;32.50;;
63316;SDS011;49822;41.468;13.560;2023-01-16T04:55:49;44.50;;;22.58;;
63316;SDS011;49822;41.468;13.560;2023-01-16T04:58:16;40.03;;;19.88;;
63316;SDS011;49822;41.468;13.560;2023-01-16T05:00:45;38.20;;;19.50;;
63316;SDS011;49822;41.468;13.560;2023-01-16T05:03:16;57.70;;;28.83;;
63316;SDS011;49822;41.468;13.560;2023-01-16T05:06:03;64.05;;;29.50;;
63316;SDS011;49822;41.468;13.560;2023-01-16T05:08:32;148.32;;;80.30;;
63316;SDS011;49822;41.468;13.560;2023-01-16T05:10:59;151.13;;;72.25;;
63316;SDS011;49822;41.468;13.560;2023-01-16T05:13:28;105.05;;;49.17;;
63316;SDS011;49822;41.468;13.560;2023-01-16T05:15:57;107.10;;;51.05;;
63316;SDS011;49822;41.468;13.560;2023-01-16T05:18:28;45.17;;;20.27;;
63316;SDS011;49822;41.468;13.560;2023-01-16T05:20:56;49.47;;;24.20;;
63316;SDS011;49822;41.468;13.560;2023-01-16T05:23:23;45.03;;;24.80;;
63316;SDS011;49822;41.468;13.560;2023-01-16T05:25:51;31.88;;;18.23;;
63316;SDS011;49822;41.468;13.560;2023-01-16T05:28:20;22.98;;;12.00;;
63316;SDS011;49822;41.468;13.560;2023-01-16T05:30:48;16.13;;;8.27;;
63316;SDS011;49822;41.468;13.560;2023-01-16T05:33:18;32.50;;;14.02;;
63316;SDS011;49822;41.468;13.560;2023-01-16T05:35:46;37.20;;;17.92;;
63316;SDS011;49822;41.468;13.560;2023-01-16T05:38:14;35.28;;;20.58;;
63316;SDS011;49822;41.468;13.560;2023-01-16T05:40:42;32.80;;;17.05;;
63316;SDS011;49822;41.468;13.560;2023-01-16T05:43:12;27.47;;;14.33;;
63316;SDS011;49822;41.468;13.560;2023-01-16T05:45:41;25.17;;;13.90;;
63316;SDS011;49822;41.468;13.560;2023-01-16T05:48:12;24.60;;;13.30;;
63316;SDS011;49822;41.468;13.560;2023-01-16T05:50:39;29.52;;;15.40;;
63316;SDS011;49822;41.468;13.560;2023-01-16T05:53:07;186.75;;;70.88;;
63316;SDS011;49822;41.468;13.560;2023-01-16T05:55:40;217.93;;;119.85;;
63316;SDS011;49822;41.468;13.560;2023-01-16T05:58:11;134.50;;;75.25;;
63316;SDS011;49822;41.468;13.560;2023-01-16T06:00:41;84.45;;;42.30;;
63316;SDS011;49822;41.468;13.560;2023-01-16T06:03:14;68.50;;;34.42;;
63316;SDS011;49822;41.468;13.560;2023-01-16T06:05:44;56.60;;;29.70;;
63316;SDS011;49822;41.468;13.560;2023-01-16T06:08:12;73.53;;;36.75;;
63316;SDS011;49822;41.468;13.560;2023-01-16T06:10:40;75.28;;;41.72;;
63316;SDS011;49822;41.468;13.560;2023-01-16T06:13:08;58.70;;;33.03;;
63316;SDS011;49822;41.468;13.560;2023-01-16T06:15:36;61.58;;;32.88;;
63316;SDS011;49822;41.468;13.560;2023-01-16T06:18:05;54.47;;;29.58;;
63316;SDS011;49822;41.468;13.560;2023-01-16T06:20:33;84.30;;;35.53;;
63316;SDS011;49822;41.468;13.560;2023-01-16T06:23:01;140.98;;;45.22;;
63316;SDS011;49822;41.468;13.560;2023-01-16T06:25:29;298.67;;;84.07;;
63316;SDS011;49822;41.468;13.560;2023-01-16T06:27:56;122.10;;;45.35;;
63316;SDS011;49822;41.468;13.560;2023-01-16T06:30:24;73.28;;;36.92;;
63316;SDS011;49822;41.468;13.560;2023-01-16T06:32:54;85.78;;;39.00;;
63316;SDS011;49822;41.468;13.560;2023-01-16T06:35:22;74.20;;;36.45;;
63316;SDS011;49822;41.468;13.560;2023-01-16T06:37:53;67.97;;;34.60;;
63316;SDS011;49822;41.468;13.560;2023-01-16T06:40:21;70.38;;;35.97;;
63316;SDS011;49822;41.468;13.560;2023-01-16T06:42:49;77.38;;;42.05;;
63316;SDS011;49822;41.468;13.560;2023-01-16T06:45:16;73.30;;;39.70;;
63316;SDS011;49822;41.468;13.560;2023-01-16T06:47:52;60.67;;;33.58;;
63316;SDS011;49822;41.468;13.560;2023-01-16T06:50:21;65.68;;;32.28;;
63316;SDS011;49822;41.468;13.560;2023-01-16T06:52:49;102.60;;;42.70;;
63316;SDS011;49822;41.468;13.560;2023-01-16T06:55:17;113.53;;;47.55;;
63316;SDS011;49822;41.468;13.560;2023-01-16T06:57:44;80.85;;;40.25;;
63316;SDS011;49822;41.468;13.560;2023-01-16T07:00:12;89.28;;;44.70;;
63316;SDS011;49822;41.468;13.560;2023-01-16T07:02:41;116.90;;;53.63;;
63316;SDS011;49822;41.468;13.560;2023-01-16T07:05:09;101.43;;;46.42;;
63316;SDS011;49822;41.468;13.560;2023-01-16T07:07:37;152.77;;;59.03;;
63316;SDS011;49822;41.468;13.560;2023-01-16T07:10:04;115.43;;;48.47;;
63316;SDS011;49822;41.468;13.560;2023-01-16T07:12:32;78.50;;;37.90;;
63316;SDS011;49822;41.468;13.560;2023-01-16T07:14:59;85.38;;;42.03;;
63316;SDS011;49822;41.468;13.560;2023-01-16T07:17:45;100.55;;;45.22;;
63316;SDS011;49822;41.468;13.560;2023-01-16T07:20:32;119.45;;;43.00;;
63316;SDS011;49822;41.468;13.560;2023-01-16T07:23:20;110.03;;;45.13;;
63316;SDS011;49822;41.468;13.560;2023-01-16T07:25:55;135.10;;;52.55;;
63316;SDS011;49822;41.468;13.560;2023-01-16T07:28:25;109.32;;;48.05;;
63316;SDS011;49822;41.468;13.560;2023-01-16T07:30:55;111.75;;;48.72;;
63316;SDS011;49822;41.468;13.560;2023-01-16T07:33:26;86.60;;;39.88;;
63316;SDS011;49822;41.468;13.560;2023-01-16T07:35:55;70.45;;;37.28;;
63316;SDS011;49822;41.468;13.560;2023-01-16T07:38:23;79.00;;;37.30;;
63316;SDS011;49822;41.468;13.560;2023-01-16T07:40:51;83.43;;;42.08;;
63316;SDS011;49822;41.468;13.560;2023-01-16T07:43:18;79.95;;;36.50;;
63316;SDS011;49822;41.468;13.560;2023-01-16T07:45:47;94.22;;;44.85;;
63316;SDS011;49822;41.468;13.560;2023-01-16T07:48:21;73.85;;;37.58;;
63316;SDS011;49822;41.468;13.560;2023-01-16T07:50:53;70.38;;;31.00;;
63316;SDS011;49822;41.468;13.560;2023-01-16T07:53:25;65.22;;;35.17;;
63316;SDS011;49822;41.468;13.560;2023-01-16T07:55:58;81.82;;;39.00;;
63316;SDS011;49822;41.468;13.560;2023-01-16T07:58:28;68.10;;;35.63;;
63316;SDS011;49822;41.468;13.560;2023-01-16T08:00:57;68.32;;;33.17;;
63316;SDS011;49822;41.468;13.560;2023-01-16T08:03:26;60.55;;;35.15;;
63316;SDS011;49822;41.468;13.560;2023-01-16T08:05:58;55.20;;;29.13;;
63316;SDS011;49822;41.468;13.560;2023-01-16T08:08:25;62.50;;;32.25;;
63316;SDS011;49822;41.468;13.560;2023-01-16T08:10:56;61.50;;;31.57;;
63316;SDS011;49822;41.468;13.560;2023-01-16T08:13:25;75.35;;;40.15;;
63316;SDS011;49822;41.468;13.560;2023-01-16T08:16:07;70.55;;;38.47;;
63316;SDS011;49822;41.468;13.560;2023-01-16T08:18:35;88.53;;;46.50;;
63316;SDS011;49822;41.468;13.560;2023-01-16T08:21:02;85.05;;;39.38;;
63316;SDS011;49822;41.468;13.560;2023-01-16T08:23:29;75.82;;;40.42;;
63316;SDS011;49822;41.468;13.560;2023-01-16T08:25:57;90.40;;;41.97;;
63316;SDS011;49822;41.468;13.560;2023-01-16T08:28:27;67.43;;;35.85;;
63316;SDS011;49822;41.468;13.560;2023-01-16T08:30:55;66.85;;;32.38;;
63316;SDS011;49822;41.468;13.560;2023-01-16T08:33:30;50.97;;;29.90;;
63316;SDS011;49822;41.468;13.560;2023-01-16T08:35:58;52.22;;;28.10;;
63316;SDS011;49822;41.468;13.560;2023-01-16T08:38:25;61.83;;;30.40;;
63316;SDS011;49822;41.468;13.560;2023-01-16T08:40:53;59.65;;;31.25;;
63316;SDS011;49822;41.468;13.560;2023-01-16T08:43:22;55.53;;;28.67;;
63316;SDS011;49822;41.468;13.560;2023-01-16T08:46:18;49.20;;;27.38;;
63316;SDS011;49822;41.468;13.560;2023-01-16T08:49:12;36.95;;;22.77;;
63316;SDS011;49822;41.468;13.560;2023-01-16T08:52:00;62.78;;;29.27;;
63316;SDS011;49822;41.468;13.560;2023-01-16T08:54:27;76.95;;;30.27;;
63316;SDS011;49822;41.468;13.560;2023-01-16T08:56:55;64.20;;;27.67;;
63316;SDS011;49822;41.468;13.560;2023-01-16T08:59:23;57.53;;;30.73;;
63316;SDS011;49822;41.468;13.560;2023-01-16T09:01:50;52.58;;;26.95;;
63316;SDS011;49822;41.468;13.560;2023-01-16T09:04:18;50.45;;;25.90;;
63316;SDS011;49822;41.468;13.560;2023-01-16T09:06:46;54.92;;;26.90;;
63316;SDS011;49822;41.468;13.560;2023-01-16T09:09:15;52.33;;;28.88;;
63316;SDS011;49822;41.468;13.560;2023-01-16T09:11:42;47.78;;;24.70;;
63316;SDS011;49822;41.468;13.560;2023-01-16T09:14:28;50.63;;;27.55;;
63316;SDS011;49822;41.468;13.560;2023-01-16T09:16:56;64.70;;;35.10;;
63316;SDS011;49822;41.468;13.560;2023-01-16T09:19:24;56.58;;;30.95;;
63316;SDS011;49822;41.468;13.560;2023-01-16T09:21:51;50.10;;;28.38;;
63316;SDS011;49822;41.468;13.560;2023-01-16T09:24:19;50.83;;;26.40;;
63316;SDS011;49822;41.468;13.560;2023-01-16T09:26:46;57.53;;;26.25;;
63316;SDS011;49822;41.468;13.560;2023-01-16T09:29:17;39.80;;;21.80;;
63316;SDS011;49822;41.468;13.560;2023-01-16T09:31:44;39.60;;;21.08;;
63316;SDS011;49822;41.468;13.560;2023-01-16T09:34:13;39.85;;;17.88;;
63316;SDS011;49822;41.468;13.560;2023-01-16T09:36:40;40.50;;;17.10;;
63316;SDS011;49822;41.468;13.560;2023-01-16T09:39:08;22.10;;;7.93;;
63316;SDS011;49822;41.468;13.560;2023-01-16T09:41:39;19.50;;;5.95;;
63316;SDS011;49822;41.468;13.560;2023-01-16T09:44:39;26.85;;;14.15;;
63316;SDS011;49822;41.468;13.560;2023-01-16T09:47:08;30.13;;;10.85;;
63316;SDS011;49822;41.468;13.560;2023-01-16T09:49:58;26.08;;;4.22;;
63316;SDS011;49822;41.468;13.560;2023-01-16T09:52:48;24.23;;;7.78;;
63316;SDS011;49822;41.468;13.560;2023-01-16T09:55:55;12.57;;;2.67;;
63316;SDS011;49822;41.468;13.560;2023-01-16T09:58:53;16.92;;;3.35;;
63316;SDS011;49822;41.468;13.560;2023-01-16T10:01:43;15.25;;;3.55;;
63316;SDS011;49822;41.468;13.560;2023-01-16T10:04:19;14.23;;;3.78;;
63316;SDS011;49822;41.468;13.560;2023-01-16T10:06:51;17.40;;;5.85;;
63316;SDS011;49822;41.468;13.560;2023-01-16T10:09:33;14.63;;;3.00;;
63316;SDS011;49822;41.468;13.560;2023-01-16T10:12:10;15.77;;;3.05;;
63316;SDS011;49822;41.468;13.560;2023-01-16T10:31:21;49.83;;;10.13;;
63316;SDS011;49822;41.468;13.560;2023-01-16T10:33:57;15.75;;;4.18;;
63316;SDS011;49822;41.468;13.560;2023-01-16T10:36:40;27.38;;;3.20;;
63316;SDS011;49822;41.468;13.560;2023-01-16T10:39:13;20.85;;;2.40;;
63316;SDS011;49822;41.468;13.560;2023-01-16T10:42:17;14.93;;;2.88;;
63316;SDS011;49822;41.468;13.560;2023-01-16T10:47:51;10.02;;;2.08;;
63316;SDS011;49822;41.468;13.560;2023-01-16T10:50:38;13.32;;;2.95;;
63316;SDS011;49822;41.468;13.560;2023-01-16T10:53:08;21.45;;;3.55;;
63316;SDS011;49822;41.468;13.560;2023-01-16T10:55:41;21.83;;;2.97;;
63316;SDS011;49822;41.468;13.560;2023-01-16T11:00:50;19.10;;;2.60;;
63316;SDS011;49822;41.468;13.560;2023-01-16T11:03:40;18.95;;;3.08;;
63316;SDS011;49822;41.468;13.560;2023-01-16T11:06:15;15.20;;;2.95;;
63316;SDS011;49822;41.468;13.560;2023-01-16T11:08:48;15.95;;;2.42;;
63316;SDS011;49822;41.468;13.560;2023-01-16T11:11:20;14.45;;;2.95;;
63316;SDS011;49822;41.468;13.560;2023-01-16T11:14:15;15.88;;;2.05;;
63316;SDS011;49822;41.468;13.560;2023-01-16T11:20:18;13.80;;;2.20;;
63316;SDS011;49822;41.468;13.560;2023-01-16T11:25:27;12.70;;;2.28;;
63316;SDS011;49822;41.468;13.560;2023-01-16T11:27:57;16.58;;;3.45;;
63316;SDS011;49822;41.468;13.560;2023-01-16T11:30:30;20.60;;;2.60;;
63316;SDS011;49822;41.468;13.560;2023-01-16T11:33:03;21.08;;;3.30;;
63316;SDS011;49822;41.468;13.560;2023-01-16T11:35:36;24.63;;;3.22;;
63316;SDS011;49822;41.468;13.560;2023-01-16T11:38:04;16.40;;;2.50;;
63316;SDS011;49822;41.468;13.560;2023-01-16T11:40:37;21.95;;;4.47;;
63316;SDS011;49822;41.468;13.560;2023-01-16T11:43:13;19.83;;;3.20;;
63316;SDS011;49822;41.468;13.560;2023-01-16T11:46:05;35.75;;;9.65;;
63316;SDS011;49822;41.468;13.560;2023-01-16T11:48:50;22.02;;;2.70;;
63316;SDS011;49822;41.468;13.560;2023-01-16T11:51:24;12.43;;;2.40;;
63316;SDS011;49822;41.468;13.560;2023-01-16T11:53:58;20.58;;;2.63;;
63316;SDS011;49822;41.468;13.560;2023-01-16T11:56:49;11.77;;;2.00;;
63316;SDS011;49822;41.468;13.560;2023-01-16T11:59:44;19.83;;;2.95;;
63316;SDS011;49822;41.468;13.560;2023-01-16T12:02:27;20.48;;;2.60;;
63316;SDS011;49822;41.468;13.560;2023-01-16T12:13:14;11.50;;;1.95;;
63316;SDS011;49822;41.468;13.560;2023-01-16T12:26:39;11.32;;;2.00;;
63316;SDS011;49822;41.468;13.560;2023-01-16T12:29:31;33.40;;;18.52;;
63316;SDS011;49822;41.468;13.560;2023-01-16T12:37:57;21.33;;;4.82;;
63316;SDS011;49822;41.468;13.560;2023-01-16T12:47:05;50.67;;;11.02;;
63316;SDS011;49822;41.468;13.560;2023-01-16T12:53:16;115.93;;;26.05;;
63316;SDS011;49822;41.468;13.560;2023-01-16T12:55:25;40.28;;;9.82;;
63316;SDS011;49822;41.468;13.560;2023-01-16T12:58:20;14.75;;;4.25;;
63316;SDS011;49822;41.468;13.560;2023-01-16T13:00:58;9.73;;;1.92;;
63316;SDS011;49822;41.468;13.560;2023-01-16T13:03:48;12.60;;;2.42;;
63316;SDS011;49822;41.468;13.560;2023-01-16T13:07:00;60.50;;;14.88;;
63316;SDS011;49822;41.468;13.560;2023-01-16T13:09:34;28.88;;;9.45;;
63316;SDS011;49822;41.468;13.560;2023-01-16T13:15:05;16.92;;;4.93;;
63316;SDS011;49822;41.468;13.560;2023-01-16T13:17:47;17.08;;;3.63;;
63316;SDS011;49822;41.468;13.560;2023-01-16T13:20:22;20.05;;;4.70;;
63316;SDS011;49822;41.468;13.560;2023-01-16T13:22:54;10.52;;;2.60;;
63316;SDS011;49822;41.468;13.560;2023-01-16T13:25:36;19.20;;;3.40;;
63316;SDS011;49822;41.468;13.560;2023-01-16T13:28:32;18.25;;;2.53;;
63316;SDS011;49822;41.468;13.560;2023-01-16T13:34:15;6.43;;;1.35;;
63316;SDS011;49822;41.468;13.560;2023-01-16T13:36:55;14.65;;;3.60;;
63316;SDS011;49822;41.468;13.560;2023-01-16T13:42:32;16.80;;;2.88;;
63316;SDS011;49822;41.468;13.560;2023-01-16T13:45:07;14.40;;;3.25;;
63316;SDS011;49822;41.468;13.560;2023-01-16T13:48:10;14.50;;;2.55;;
63316;SDS011;49822;41.468;13.560;2023-01-16T13:50:38;23.50;;;3.50;;
63316;SDS011;49822;41.468;13.560;2023-01-16T13:53:11;10.05;;;2.65;;
63316;SDS011;49822;41.468;13.560;2023-01-16T13:55:40;13.90;;;2.30;;
63316;SDS011;49822;41.468;13.560;2023-01-16T13:58:14;10.75;;;2.15;;
63316;SDS011;49822;41.468;13.560;2023-01-16T14:01:01;17.70;;;3.35;;
63316;SDS011;49822;41.468;13.560;2023-01-16T14:03:32;13.65;;;2.10;;
63316;SDS011;49822;41.468;13.560;2023-01-16T14:17:12;7.22;;;1.67;;
63316;SDS011;49822;41.468;13.560;2023-01-16T14:19:59;19.60;;;4.60;;
63316;SDS011;49822;41.468;13.560;2023-01-16T14:25:03;30.50;;;8.57;;
63316;SDS011;49822;41.468;13.560;2023-01-16T14:27:34;10.27;;;2.35;;
63316;SDS011;49822;41.468;13.560;2023-01-16T14:30:18;9.43;;;3.38;;
63316;SDS011;49822;41.468;13.560;2023-01-16T14:32:54;10.38;;;2.45;;
63316;SDS011;49822;41.468;13.560;2023-01-16T14:35:25;14.50;;;3.55;;
63316;SDS011;49822;41.468;13.560;2023-01-16T14:43:33;13.70;;;2.38;;
63316;SDS011;49822;41.468;13.560;2023-01-16T14:58:39;9.25;;;2.97;;
63316;SDS011;49822;41.468;13.560;2023-01-16T15:01:28;9.15;;;2.20;;
63316;SDS011;49822;41.468;13.560;2023-01-16T15:04:18;7.93;;;2.40;;
63316;SDS011;49822;41.468;13.560;2023-01-16T15:06:50;13.40;;;3.15;;
63316;SDS011;49822;41.468;13.560;2023-01-16T15:09:22;9.52;;;2.03;;
63316;SDS011;49822;41.468;13.560;2023-01-16T15:14:27;17.40;;;5.95;;
63316;SDS011;49822;41.468;13.560;2023-01-16T15:22:53;21.35;;;7.88;;
63316;SDS011;49822;41.468;13.560;2023-01-16T15:25:25;16.63;;;6.03;;
63316;SDS011;49822;41.468;13.560;2023-01-16T15:30:41;21.23;;;5.63;;
63316;SDS011;49822;41.468;13.560;2023-01-16T15:33:29;20.90;;;8.90;;
63316;SDS011;49822;41.468;13.560;2023-01-16T15:36:23;17.20;;;6.25;;
63316;SDS011;49822;41.468;13.560;2023-01-16T15:38:55;11.60;;;4.15;;
63316;SDS011;49822;41.468;13.560;2023-01-16T15:41:28;8.68;;;3.75;;
63316;SDS011;49822;41.468;13.560;2023-01-16T15:44:17;8.63;;;4.13;;
63316;SDS011;49822;41.468;13.560;2023-01-16T15:53:08;12.43;;;5.43;;
63316;SDS011;49822;41.468;13.560;2023-01-16T15:55:37;12.88;;;4.82;;
63316;SDS011;49822;41.468;13.560;2023-01-16T15:58:14;14.10;;;5.95;;
63316;SDS011;49822;41.468;13.560;2023-01-16T16:00:58;18.80;;;9.65;;
63316;SDS011;49822;41.468;13.560;2023-01-16T16:03:41;430.38;;;182.50;;
63316;SDS011;49822;41.468;13.560;2023-01-16T16:08:47;225.68;;;91.28;;
63316;SDS011;49822;41.468;13.560;2023-01-16T16:11:18;344.95;;;116.57;;
63316;SDS011;49822;41.468;13.560;2023-01-16T16:14:09;31.38;;;18.63;;
63316;SDS011;49822;41.468;13.560;2023-01-16T16:23:23;12.88;;;5.93;;
63316;SDS011;49822;41.468;13.560;2023-01-16T16:25:53;16.00;;;4.68;;
63316;SDS011;49822;41.468;13.560;2023-01-16T16:31:15;15.18;;;7.00;;
63316;SDS011;49822;41.468;13.560;2023-01-16T16:33:52;21.35;;;11.70;;
63316;SDS011;49822;41.468;13.560;2023-01-16T16:36:29;29.27;;;18.42;;
63316;SDS011;49822;41.468;13.560;2023-01-16T16:39:24;26.55;;;14.63;;
63316;SDS011;49822;41.468;13.560;2023-01-16T16:42:35;45.70;;;26.58;;
63316;SDS011;49822;41.468;13.560;2023-01-16T16:45:26;24.42;;;12.63;;
63316;SDS011;49822;41.468;13.560;2023-01-16T16:53:54;25.80;;;8.95;;
63316;SDS011;49822;41.468;13.560;2023-01-16T16:56:25;50.17;;;29.70;;
63316;SDS011;49822;41.468;13.560;2023-01-16T16:58:56;33.67;;;16.65;;
63316;SDS011;49822;41.468;13.560;2023-01-16T17:01:35;28.42;;;14.48;;
63316;SDS011;49822;41.468;13.560;2023-01-16T17:04:08;38.70;;;16.52;;
63316;SDS011;49822;41.468;13.560;2023-01-16T17:06:43;14.43;;;5.63;;
63316;SDS011;49822;41.468;13.560;2023-01-16T17:11:44;20.57;;;10.63;;
63316;SDS011;49822;41.468;13.560;2023-01-16T17:14:13;8.85;;;2.65;;
63316;SDS011;49822;41.468;13.560;2023-01-16T17:16:42;6.68;;;2.08;;
63316;SDS011;49822;41.468;13.560;2023-01-16T17:19:15;6.07;;;2.03;;
63316;SDS011;49822;41.468;13.560;2023-01-16T17:21:48;6.22;;;1.60;;
63316;SDS011;49822;41.468;13.560;2023-01-16T17:24:17;16.00;;;5.10;;
63316;SDS011;49822;41.468;13.560;2023-01-16T17:26:47;24.98;;;8.48;;
63316;SDS011;49822;41.468;13.560;2023-01-16T17:29:16;33.65;;;14.85;;
63316;SDS011;49822;41.468;13.560;2023-01-16T17:31:45;285.85;;;102.97;;
63316;SDS011;49822;41.468;13.560;2023-01-16T17:34:17;311.50;;;106.38;;
63316;SDS011;49822;41.468;13.560;2023-01-16T17:36:46;135.05;;;49.42;;
63316;SDS011;49822;41.468;13.560;2023-01-16T17:39:19;46.33;;;25.38;;
63316;SDS011;49822;41.468;13.560;2023-01-16T17:41:47;36.13;;;17.73;;